createdAt,value
2023-04-15T00:00:01.243Z,11.70
2023-04-15T00:01:01.236Z,12.80
2023-04-15T00:02:01.500Z,15.00
2023-04-15T00:03:01.380Z,12.80
2023-04-15T00:04:01.339Z,9.70
2023-04-15T00:05:01.266Z,12.90
2023-04-15T00:06:01.211Z,14.80
2023-04-15T00:07:01.159Z,9.60
2023-04-15T00:08:01.195Z,16.00
2023-04-15T00:09:01.563Z,12.40
2023-04-15T00:10:01.113Z,13.40
2023-04-15T00:11:01.131Z,13.90
2023-04-15T00:12:01.193Z,14.80
2023-04-15T00:13:01.125Z,14.00
2023-04-15T00:14:01.128Z,13.50
2023-04-15T00:15:01.169Z,13.00
2023-04-15T00:16:01.119Z,12.70
2023-04-15T00:17:01.148Z,13.20
2023-04-15T00:18:01.213Z,17.80
2023-04-15T00:19:01.291Z,16.20
2023-04-15T00:20:01.016Z,13.80
2023-04-15T00:21:01.042Z,15.10
2023-04-15T00:22:00.989Z,15.30
2023-04-15T00:23:00.991Z,15.10
2023-04-15T00:24:00.998Z,14.80
2023-04-15T00:25:01.015Z,13.60
2023-04-15T00:26:00.988Z,15.70
2023-04-15T00:27:00.997Z,13.60
2023-04-15T00:28:00.938Z,16.70
2023-04-15T00:29:01.116Z,15.50
2023-04-15T00:30:01.019Z,12.70
2023-04-15T00:31:00.948Z,16.90
2023-04-15T00:32:01.015Z,13.90
2023-04-15T00:33:00.923Z,12.40
2023-04-15T00:34:00.944Z,13.50
2023-04-15T00:35:00.945Z,15.60
2023-04-15T00:36:00.893Z,13.10
2023-04-15T00:37:00.880Z,14.80
2023-04-15T00:38:00.848Z,15.80
2023-04-15T00:39:01.050Z,15.70
2023-04-15T00:40:00.867Z,15.80
2023-04-15T00:41:00.834Z,13.90
2023-04-15T00:42:00.867Z,14.90
2023-04-15T00:43:00.818Z,14.30
2023-04-15T00:44:00.806Z,13.40
2023-04-15T00:45:00.819Z,11.90
2023-04-15T00:46:00.909Z,12.20
2023-04-15T00:47:00.770Z,16.70
2023-04-15T00:48:00.900Z,15.10
2023-04-15T00:49:00.847Z,15.00
2023-04-15T00:50:00.757Z,13.20
2023-04-15T00:51:00.738Z,12.30
2023-04-15T00:52:00.708Z,14.10
2023-04-15T00:53:00.738Z,16.70
2023-04-15T00:54:00.679Z,14.60
2023-04-15T00:55:00.682Z,16.00
2023-04-15T00:56:00.724Z,13.00
2023-04-15T00:57:00.662Z,14.50
2023-04-15T00:58:00.744Z,13.80
2023-04-15T00:59:00.814Z,14.70
2023-04-15T01:00:00.643Z,14.70
2023-04-15T01:01:00.650Z,16.50
2023-04-15T01:02:00.793Z,14.60
2023-04-15T01:03:00.817Z,15.10
2023-04-15T01:04:00.680Z,13.20
2023-04-15T01:05:00.616Z,13.80
2023-04-15T01:06:03.421Z,13.10
2023-04-15T01:07:00.576Z,12.90
2023-04-15T01:08:00.588Z,13.90
2023-04-15T01:09:00.718Z,12.10
2023-04-15T01:10:00.541Z,11.60
2023-04-15T01:11:00.533Z,12.50
2023-04-15T01:12:00.500Z,13.70
2023-04-15T01:13:00.521Z,12.30
2023-04-15T01:14:00.490Z,13.70
2023-04-15T01:15:00.511Z,12.40
2023-04-15T01:16:00.576Z,13.10
2023-04-15T01:17:00.488Z,14.30
2023-04-15T01:18:00.579Z,14.60
2023-04-15T01:19:00.658Z,16.40
2023-04-15T01:20:00.440Z,15.60
2023-04-15T01:21:00.428Z,12.20
2023-04-15T01:22:00.391Z,11.50
2023-04-15T01:23:00.411Z,12.30
2023-04-15T01:24:00.447Z,11.90
2023-04-15T01:25:00.445Z,13.00
2023-04-15T01:26:00.363Z,13.80
2023-04-15T01:27:00.356Z,16.70
2023-04-15T01:28:00.322Z,12.30
2023-04-15T01:29:01.309Z,12.60
2023-04-15T01:30:00.342Z,11.40
2023-04-15T01:31:00.388Z,11.70
2023-04-15T01:32:00.314Z,11.50
2023-04-15T01:33:00.409Z,10.70
2023-04-15T01:34:00.295Z,10.80
2023-04-15T01:35:00.316Z,9.90
2023-04-15T01:36:00.246Z,12.80
2023-04-15T01:37:00.326Z,12.60
2023-04-15T01:38:00.292Z,17.50
2023-04-15T01:39:00.659Z,11.70
2023-04-15T01:40:00.299Z,13.40
2023-04-15T01:41:00.307Z,13.10
2023-04-15T01:42:00.229Z,11.00
2023-04-15T01:43:00.257Z,10.70
2023-04-15T01:44:00.201Z,13.10
2023-04-15T01:45:00.181Z,11.80
2023-04-15T01:46:00.182Z,14.30
2023-04-15T01:47:00.336Z,13.00
2023-04-15T01:48:00.232Z,13.10
2023-04-15T01:49:00.364Z,13.20
2023-04-15T01:50:00.136Z,11.80
2023-04-15T01:51:00.191Z,15.50
2023-04-15T01:52:00.130Z,14.60
2023-04-15T01:53:00.114Z,12.00
2023-04-15T01:54:00.145Z,12.00
2023-04-15T01:55:00.056Z,14.40
2023-04-15T01:56:00.103Z,12.80
2023-04-15T01:57:00.131Z,12.40
2023-04-15T01:58:00.055Z,12.60
2023-04-15T01:59:00.246Z,11.90
2023-04-15T02:00:00.161Z,11.10
2023-04-15T02:01:00.151Z,10.80
2023-04-15T02:02:00.090Z,12.10
2023-04-15T02:03:00.045Z,13.50
2023-04-15T02:04:00.020Z,14.70
2023-04-15T02:04:59.975Z,12.00
2023-04-15T02:05:59.987Z,14.60
2023-04-15T02:06:59.964Z,16.90
2023-04-15T02:07:59.944Z,13.70
2023-04-15T02:09:00.261Z,15.80
2023-04-15T02:09:59.909Z,19.40
2023-04-15T02:10:59.953Z,14.80
2023-04-15T02:11:59.895Z,17.50
2023-04-15T02:12:59.969Z,14.40
2023-04-15T02:13:59.878Z,15.30
2023-04-15T02:14:59.904Z,20.90
2023-04-15T02:15:59.909Z,19.30
2023-04-15T02:16:59.927Z,18.60
2023-04-15T02:17:59.880Z,16.10
2023-04-15T02:19:00.144Z,13.10
2023-04-15T02:19:59.832Z,14.50
2023-04-15T02:20:59.829Z,13.20
2023-04-15T02:21:59.786Z,17.20
2023-04-15T02:22:59.796Z,20.10
2023-04-15T02:23:59.805Z,15.90
2023-04-15T02:24:59.869Z,19.20
2023-04-15T02:25:59.743Z,21.70
2023-04-15T02:26:59.736Z,19.80
2023-04-15T02:27:59.777Z,19.00
2023-04-15T02:28:59.950Z,23.10
2023-04-15T02:29:59.720Z,19.60
2023-04-15T02:30:59.755Z,17.20
2023-04-15T02:31:59.735Z,17.70
2023-04-15T02:32:59.733Z,17.70
2023-04-15T02:33:59.752Z,14.90
2023-04-15T02:34:59.678Z,14.00
2023-04-15T02:35:59.651Z,16.80
2023-04-15T02:36:59.657Z,12.90
2023-04-15T02:37:59.666Z,12.80
2023-04-15T02:38:59.838Z,12.60
2023-04-15T02:39:59.660Z,12.00
2023-04-15T02:41:00.223Z,13.70
2023-04-15T02:41:59.604Z,10.70
2023-04-15T02:42:59.562Z,16.60
2023-04-15T02:43:59.635Z,17.50
2023-04-15T02:44:59.604Z,14.70
2023-04-15T02:45:59.572Z,17.50
2023-04-15T02:46:59.574Z,17.70
2023-04-15T02:47:59.625Z,20.10
2023-04-15T02:48:59.990Z,20.20
2023-04-15T02:49:59.493Z,20.50
2023-04-15T02:50:59.540Z,17.20
2023-04-15T02:52:00.094Z,15.30
2023-04-15T02:52:59.536Z,20.10
2023-04-15T02:53:59.474Z,15.20
2023-04-15T02:54:59.485Z,13.70
2023-04-15T02:55:59.455Z,14.80
2023-04-15T02:56:59.472Z,12.50
2023-04-15T02:57:59.437Z,14.20
2023-04-15T02:58:59.551Z,12.90
2023-04-15T02:59:59.400Z,12.50
2023-04-15T03:00:59.456Z,13.60
2023-04-15T03:01:59.423Z,14.00
2023-04-15T03:02:59.557Z,13.00
2023-04-15T03:03:59.456Z,21.30
2023-04-15T03:04:59.360Z,17.20
2023-04-15T03:05:59.329Z,18.10
2023-04-15T03:06:59.356Z,19.10
2023-04-15T03:07:59.310Z,18.20
2023-04-15T03:08:59.442Z,18.70
2023-04-15T03:09:59.328Z,17.70
2023-04-15T03:10:59.311Z,17.30
2023-04-15T03:11:59.278Z,21.10
2023-04-15T03:12:59.291Z,19.60
2023-04-15T03:13:59.245Z,19.10
2023-04-15T03:14:59.267Z,25.50
2023-04-15T03:15:59.326Z,27.60
2023-04-15T03:16:59.232Z,21.90
2023-04-15T03:17:59.309Z,21.90
2023-04-15T03:18:59.369Z,19.60
2023-04-15T03:19:59.289Z,18.90
2023-04-15T03:20:59.255Z,18.00
2023-04-15T03:21:59.224Z,19.80
2023-04-15T03:22:59.220Z,20.90
2023-04-15T03:23:59.155Z,20.10
2023-04-15T03:24:59.191Z,24.00
2023-04-15T03:25:59.121Z,21.70
2023-04-15T03:26:59.109Z,21.30
2023-04-15T03:27:59.118Z,22.90
2023-04-15T03:28:59.364Z,23.50
2023-04-15T03:29:59.100Z,20.50
2023-04-15T03:30:59.121Z,22.70
2023-04-15T03:31:59.078Z,26.80
2023-04-15T03:32:59.240Z,23.70
2023-04-15T03:33:59.102Z,23.60
2023-04-15T03:34:59.045Z,22.00
2023-04-15T03:35:59.129Z,24.90
2023-04-15T03:36:59.019Z,24.40
2023-04-15T03:37:58.996Z,22.30
2023-04-15T03:38:59.232Z,26.70
2023-04-15T03:39:59.020Z,25.40
2023-04-15T03:40:58.979Z,26.20
2023-04-15T03:41:58.973Z,22.80
2023-04-15T03:42:58.947Z,23.60
2023-04-15T03:43:58.973Z,25.80
2023-04-15T03:44:58.936Z,25.30
2023-04-15T03:46:00.208Z,26.80
2023-04-15T03:46:58.906Z,25.50
2023-04-15T03:48:15.631Z,25.10
2023-04-15T03:48:59.081Z,27.30
2023-04-15T03:49:58.920Z,21.90
2023-04-15T03:50:58.897Z,22.70
2023-04-15T03:51:58.891Z,24.30
2023-04-15T03:52:58.867Z,24.60
2023-04-15T03:53:58.883Z,24.60
2023-04-15T03:54:58.836Z,23.20
2023-04-15T03:55:58.871Z,24.50
2023-04-15T03:56:58.821Z,22.00
2023-04-15T03:57:58.824Z,22.00
2023-04-15T03:58:59.311Z,26.10
2023-04-15T03:59:58.775Z,23.30
2023-04-15T04:00:58.755Z,21.70
2023-04-15T04:01:58.821Z,19.90
2023-04-15T04:02:58.880Z,21.10
2023-04-15T04:03:58.818Z,18.60
2023-04-15T04:04:58.705Z,20.70
2023-04-15T04:05:58.676Z,23.50
2023-04-15T04:06:58.656Z,27.10
2023-04-15T04:07:58.628Z,25.40
2023-04-15T04:08:58.878Z,24.40
2023-04-15T04:09:58.689Z,21.00
2023-04-15T04:10:58.606Z,26.30
2023-04-15T04:11:58.656Z,24.80
2023-04-15T04:12:58.571Z,26.20
2023-04-15T04:13:58.633Z,23.00
2023-04-15T04:14:58.558Z,26.30
2023-04-15T04:15:58.827Z,25.70
2023-04-15T04:16:58.584Z,20.30
2023-04-15T04:17:58.623Z,20.40
2023-04-15T04:18:58.530Z,24.40
2023-04-15T04:19:58.567Z,23.40
2023-04-15T04:20:58.510Z,23.60
2023-04-15T04:21:58.536Z,21.50
2023-04-15T04:22:58.496Z,19.60
2023-04-15T04:23:58.519Z,23.50
2023-04-15T04:24:58.479Z,24.90
2023-04-15T04:25:58.459Z,23.20
2023-04-15T04:26:58.478Z,28.80
2023-04-15T04:27:58.464Z,23.90
2023-04-15T04:28:58.566Z,22.10
2023-04-15T04:29:58.495Z,18.50
2023-04-15T04:30:58.387Z,19.90
2023-04-15T04:31:58.531Z,19.30
2023-04-15T04:32:58.463Z,20.90
2023-04-15T04:33:58.380Z,19.90
2023-04-15T04:34:58.368Z,23.10
2023-04-15T04:35:58.384Z,22.50
2023-04-15T04:36:58.391Z,21.70
2023-04-15T04:37:58.364Z,26.90
2023-04-15T04:38:58.379Z,23.40
2023-04-15T04:39:58.306Z,20.50
2023-04-15T04:40:58.346Z,18.00
2023-04-15T04:41:58.311Z,20.90
2023-04-15T04:42:58.299Z,20.20
2023-04-15T04:43:58.269Z,26.20
2023-04-15T04:44:58.289Z,20.10
2023-04-15T04:45:58.305Z,19.40
2023-04-15T04:46:58.247Z,19.00
2023-04-15T04:47:58.301Z,18.90
2023-04-15T04:48:58.197Z,25.00
2023-04-15T04:49:58.193Z,24.10
2023-04-15T04:50:58.217Z,20.20
2023-04-15T04:51:58.606Z,18.60
2023-04-15T04:52:58.253Z,19.20
2023-04-15T04:53:58.152Z,22.20
2023-04-15T04:54:58.134Z,22.80
2023-04-15T04:55:58.166Z,28.20
2023-04-15T04:56:58.104Z,25.20
2023-04-15T04:57:58.153Z,22.40
2023-04-15T04:58:58.277Z,28.10
2023-04-15T04:59:58.102Z,26.60
2023-04-15T05:00:58.148Z,25.80
2023-04-15T05:01:58.141Z,26.70
2023-04-15T05:02:58.168Z,19.30
2023-04-15T05:03:58.312Z,23.30
2023-04-15T05:04:58.064Z,21.00
2023-04-15T05:05:58.083Z,18.00
2023-04-15T05:06:58.029Z,20.10
2023-04-15T05:07:58.073Z,20.80
2023-04-15T05:08:57.997Z,20.30
2023-04-15T05:09:58.018Z,20.50
2023-04-15T05:10:58.011Z,28.40
2023-04-15T05:11:57.975Z,30.40
2023-04-15T05:12:57.949Z,24.60
2023-04-15T05:13:58.022Z,26.70
2023-04-15T05:14:57.971Z,26.60
2023-04-15T05:15:58.043Z,32.60
2023-04-15T05:16:57.967Z,27.50
2023-04-15T05:17:58.010Z,22.80
2023-04-15T05:18:57.972Z,29.40
2023-04-15T05:19:57.879Z,19.40
2023-04-15T05:20:57.890Z,25.60
2023-04-15T05:21:57.929Z,19.80
2023-04-15T05:22:57.864Z,25.70
2023-04-15T05:23:57.882Z,25.40
2023-04-15T05:24:57.851Z,25.60
2023-04-15T05:25:57.843Z,22.90
2023-04-15T05:26:57.808Z,24.10
2023-04-15T05:27:57.877Z,21.00
2023-04-15T05:28:57.812Z,23.20
2023-04-15T05:29:57.800Z,23.80
2023-04-15T05:30:57.839Z,28.50
2023-04-15T05:31:57.810Z,24.00
2023-04-15T05:32:57.822Z,23.10
2023-04-15T05:33:57.794Z,22.60
2023-04-15T05:34:57.738Z,22.50
2023-04-15T05:35:57.720Z,23.40
2023-04-15T05:36:57.754Z,25.20
2023-04-15T05:37:57.828Z,21.10
2023-04-15T05:38:57.730Z,25.00
2023-04-15T05:39:57.700Z,28.50
2023-04-15T05:40:57.747Z,26.50
2023-04-15T05:41:57.732Z,32.60
2023-04-15T05:42:57.772Z,26.30
2023-04-15T05:43:57.671Z,26.90
2023-04-15T05:44:57.633Z,26.50
2023-04-15T05:45:57.694Z,29.40
2023-04-15T05:46:57.618Z,24.10
2023-04-15T05:47:57.696Z,22.20
2023-04-15T05:48:57.623Z,22.20
2023-04-15T05:49:57.587Z,33.70
2023-04-15T05:50:57.629Z,32.80
2023-04-15T05:51:57.610Z,37.20
2023-04-15T05:52:57.540Z,29.80
2023-04-15T05:53:57.599Z,31.20
2023-04-15T05:54:57.521Z,37.50
2023-04-15T05:55:57.540Z,34.20
2023-04-15T05:56:57.517Z,31.90
2023-04-15T05:57:57.504Z,32.60
2023-04-15T05:58:57.497Z,30.00
2023-04-15T05:59:57.523Z,26.30
2023-04-15T06:00:57.488Z,31.30
2023-04-15T06:01:57.520Z,35.10
2023-04-15T06:02:57.583Z,33.40
2023-04-15T06:03:57.667Z,34.20
2023-04-15T06:04:57.516Z,41.00
2023-04-15T06:05:57.424Z,33.50
2023-04-15T06:06:57.405Z,36.70
2023-04-15T06:07:57.410Z,35.80
2023-04-15T06:08:57.475Z,36.30
2023-04-15T06:09:57.420Z,38.60
2023-04-15T06:10:57.389Z,37.80
2023-04-15T06:11:57.360Z,37.90
2023-04-15T06:12:57.351Z,35.80
2023-04-15T06:13:57.362Z,37.00
2023-04-15T06:14:58.977Z,30.10
2023-04-15T06:15:57.328Z,32.40
2023-04-15T06:16:57.358Z,31.80
2023-04-15T06:17:57.416Z,34.20
2023-04-15T06:18:57.283Z,34.70
2023-04-15T06:19:57.304Z,30.60
2023-04-15T06:20:57.274Z,30.60
2023-04-15T06:21:57.292Z,32.40
2023-04-15T06:22:57.269Z,32.60
2023-04-15T06:23:57.280Z,30.60
2023-04-15T06:24:57.627Z,27.70
2023-04-15T06:25:57.223Z,31.60
2023-04-15T06:26:57.251Z,27.30
2023-04-15T06:27:57.237Z,27.60
2023-04-15T06:28:57.262Z,27.30
2023-04-15T06:29:57.181Z,30.40
2023-04-15T06:30:57.153Z,28.80
2023-04-15T06:31:57.212Z,31.40
2023-04-15T06:32:57.231Z,27.50
2023-04-15T06:33:57.148Z,26.20
2023-04-15T06:34:57.132Z,27.90
2023-04-15T06:35:57.144Z,29.90
2023-04-15T06:36:57.106Z,26.20
2023-04-15T06:37:57.089Z,24.30
2023-04-15T06:38:57.088Z,25.70
2023-04-15T06:39:57.120Z,26.70
2023-04-15T06:40:57.084Z,23.10
2023-04-15T06:41:57.088Z,26.70
2023-04-15T06:42:57.051Z,23.60
2023-04-15T06:43:57.033Z,22.50
2023-04-15T06:44:57.016Z,23.60
2023-04-15T06:45:57.206Z,21.50
2023-04-15T06:46:57.033Z,22.00
2023-04-15T06:47:57.059Z,23.70
2023-04-15T06:48:56.976Z,22.90
2023-04-15T06:49:57.002Z,24.30
2023-04-15T06:50:56.982Z,21.90
2023-04-15T06:51:56.962Z,21.40
2023-04-15T06:52:56.979Z,21.50
2023-04-15T06:53:56.996Z,22.40
2023-04-15T06:54:57.025Z,21.50
2023-04-15T06:55:56.947Z,22.00
2023-04-15T06:56:56.920Z,22.50
2023-04-15T06:57:56.915Z,22.00
2023-04-15T06:58:56.884Z,19.70
2023-04-15T06:59:56.916Z,19.10
2023-04-15T07:00:56.877Z,21.40
2023-04-15T07:01:56.881Z,23.20
2023-04-15T07:02:56.906Z,18.90
2023-04-15T07:03:56.870Z,19.60
2023-04-15T07:04:56.820Z,21.30
2023-04-15T07:05:57.603Z,20.40
2023-04-15T07:06:56.782Z,20.30
2023-04-15T07:07:56.819Z,20.50
2023-04-15T07:08:57.003Z,20.60
2023-04-15T07:09:56.798Z,20.30
2023-04-15T07:10:56.747Z,19.80
2023-04-15T07:11:56.761Z,22.10
2023-04-15T07:12:56.777Z,19.20
2023-04-15T07:13:56.751Z,18.10
2023-04-15T07:14:56.758Z,19.30
2023-04-15T07:15:56.699Z,20.30
2023-04-15T07:16:56.784Z,18.70
2023-04-15T07:17:56.821Z,18.70
2023-04-15T07:18:56.673Z,18.40
2023-04-15T07:19:56.689Z,17.70
2023-04-15T07:20:56.654Z,18.70
2023-04-15T07:21:56.654Z,19.10
2023-04-15T07:22:56.681Z,19.20
2023-04-15T07:23:56.633Z,20.10
2023-04-15T07:24:56.606Z,19.90
2023-04-15T07:25:56.644Z,18.30
2023-04-15T07:26:58.482Z,18.50
2023-04-15T07:27:56.620Z,18.70
2023-04-15T07:28:56.605Z,17.00
2023-04-15T07:29:56.588Z,17.10
2023-04-15T07:30:56.592Z,21.40
2023-04-15T07:31:56.523Z,19.30
2023-04-15T07:32:56.571Z,20.00
2023-04-15T07:33:56.506Z,18.30
2023-04-15T07:34:56.541Z,18.40
2023-04-15T07:35:56.540Z,16.60
2023-04-15T07:36:56.539Z,21.00
2023-04-15T07:37:56.505Z,21.40
2023-04-15T07:38:56.483Z,19.50
2023-04-15T07:39:56.455Z,20.40
2023-04-15T07:40:56.509Z,18.90
2023-04-15T07:41:56.444Z,18.30
2023-04-15T07:42:56.425Z,19.90
2023-04-15T07:43:56.413Z,19.30
2023-04-15T07:44:56.449Z,18.00
2023-04-15T07:45:56.448Z,16.70
2023-04-15T07:46:56.452Z,19.00
2023-04-15T07:47:56.454Z,17.40
2023-04-15T07:48:56.352Z,16.80
2023-04-15T07:49:56.360Z,16.30
2023-04-15T07:50:56.368Z,14.20
2023-04-15T07:51:56.338Z,19.10
2023-04-15T07:52:56.314Z,16.60
2023-04-15T07:53:56.293Z,18.80
2023-04-15T07:54:56.347Z,15.20
2023-04-15T07:55:56.269Z,13.40
2023-04-15T07:56:56.289Z,13.20
2023-04-15T07:57:56.309Z,13.50
2023-04-15T07:58:56.286Z,12.50
2023-04-15T07:59:56.244Z,11.30
2023-04-15T08:00:56.209Z,12.20
2023-04-15T08:01:56.292Z,12.30
2023-04-15T08:02:56.416Z,14.70
2023-04-15T08:03:56.394Z,11.90
2023-04-15T08:04:56.309Z,12.60
2023-04-15T08:05:56.149Z,11.60
2023-04-15T08:06:56.179Z,11.10
2023-04-15T08:07:56.160Z,12.10
2023-04-15T08:08:56.173Z,11.30
2023-04-15T08:09:56.151Z,13.00
2023-04-15T08:10:56.138Z,12.20
2023-04-15T08:11:56.146Z,10.70
2023-04-15T08:12:56.107Z,10.70
2023-04-15T08:13:56.089Z,10.60
2023-04-15T08:14:56.109Z,9.50
2023-04-15T08:15:56.124Z,9.90
2023-04-15T08:16:56.094Z,11.50
2023-04-15T08:17:56.075Z,11.60
2023-04-15T08:18:56.067Z,10.20
2023-04-15T08:19:56.038Z,12.10
2023-04-15T08:20:56.006Z,11.20
2023-04-15T08:21:56.014Z,12.00
2023-04-15T08:22:56.054Z,10.20
2023-04-15T08:23:56.022Z,11.30
2023-04-15T08:24:56.293Z,10.20
2023-04-15T08:25:56.016Z,11.10
2023-04-15T08:26:56.109Z,10.20
2023-04-15T08:27:55.937Z,10.50
2023-04-15T08:28:55.960Z,10.50
2023-04-15T08:29:55.879Z,10.50
2023-04-15T08:30:55.915Z,10.70
2023-04-15T08:31:56.016Z,10.20
2023-04-15T08:32:55.962Z,9.90
2023-04-15T08:33:55.876Z,10.30
2023-04-15T08:34:55.901Z,10.50
2023-04-15T08:35:55.828Z,11.00
2023-04-15T08:36:55.863Z,11.70
2023-04-15T08:37:55.823Z,10.70
2023-04-15T08:38:55.877Z,10.90
2023-04-15T08:39:55.793Z,12.70
2023-04-15T08:40:55.805Z,12.10
2023-04-15T08:41:55.858Z,11.00
2023-04-15T08:42:55.788Z,13.50
2023-04-15T08:43:55.775Z,11.70
2023-04-15T08:44:55.810Z,13.10
2023-04-15T08:45:55.760Z,10.80
2023-04-15T08:46:55.780Z,12.00
2023-04-15T08:47:55.887Z,11.90
2023-04-15T08:48:55.790Z,12.40
2023-04-15T08:49:55.753Z,13.00
2023-04-15T08:50:55.698Z,12.00
2023-04-15T08:51:55.677Z,12.50
2023-04-15T08:52:55.685Z,11.90
2023-04-15T08:53:55.649Z,10.90
2023-04-15T08:54:55.703Z,10.10
2023-04-15T08:55:55.635Z,11.00
2023-04-15T08:56:55.701Z,12.70
2023-04-15T08:57:55.674Z,10.20
2023-04-15T08:58:55.740Z,11.40
2023-04-15T08:59:55.580Z,12.40
2023-04-15T09:00:55.757Z,12.20
2023-04-15T09:01:55.664Z,11.60
2023-04-15T09:02:55.666Z,10.30
2023-04-15T09:03:55.664Z,11.30
2023-04-15T09:04:55.607Z,10.50
2023-04-15T09:05:55.533Z,11.00
2023-04-15T09:06:55.543Z,10.20
2023-04-15T09:07:55.588Z,10.40
2023-04-15T09:08:55.601Z,10.80
2023-04-15T09:09:55.581Z,12.60
2023-04-15T09:10:55.535Z,12.90
2023-04-15T09:11:55.471Z,10.80
2023-04-15T09:12:55.472Z,10.50
2023-04-15T09:13:55.508Z,11.20
2023-04-15T09:14:55.438Z,12.00
2023-04-15T09:15:55.438Z,12.90
2023-04-15T09:16:55.490Z,9.50
2023-04-15T09:17:55.460Z,12.20
2023-04-15T09:18:55.478Z,10.80
2023-04-15T09:19:55.385Z,11.30
2023-04-15T09:20:55.502Z,10.60
2023-04-15T09:21:58.001Z,10.90
2023-04-15T09:22:55.386Z,11.00
2023-04-15T09:23:55.354Z,10.90
2023-04-15T09:24:55.373Z,10.60
2023-04-15T09:25:55.423Z,12.30
2023-04-15T09:26:55.424Z,9.90
2023-04-15T09:27:55.351Z,10.70
2023-04-15T09:28:55.305Z,11.20
2023-04-15T09:29:55.316Z,10.50
2023-04-15T09:30:55.336Z,12.80
2023-04-15T09:31:55.284Z,11.30
2023-04-15T09:32:55.324Z,10.80
2023-04-15T09:33:55.272Z,9.50
2023-04-15T09:34:55.239Z,10.10
2023-04-15T09:35:55.217Z,11.10
2023-04-15T09:36:55.253Z,10.80
2023-04-15T09:37:55.268Z,11.60
2023-04-15T09:38:55.196Z,13.50
2023-04-15T09:39:55.168Z,11.80
2023-04-15T09:40:55.204Z,12.20
2023-04-15T09:41:55.564Z,12.90
2023-04-15T09:42:55.199Z,13.90
2023-04-15T09:43:55.166Z,13.40
2023-04-15T09:44:55.141Z,14.30
2023-04-15T09:45:55.146Z,13.80
2023-04-15T09:46:55.145Z,16.30
2023-04-15T09:47:56.921Z,14.70
2023-04-15T09:48:55.237Z,11.90
2023-04-15T09:49:55.157Z,12.70
2023-04-15T09:50:55.261Z,12.00
2023-04-15T09:52:04.431Z,11.60
2023-04-15T09:52:55.047Z,12.70
2023-04-15T09:53:55.159Z,12.00
2023-04-15T09:55:18.653Z,12.10
2023-04-15T09:55:55.038Z,12.60
2023-04-15T09:56:55.019Z,12.20
2023-04-15T09:57:54.992Z,11.80
2023-04-15T09:58:55.066Z,13.10
2023-04-15T09:59:54.976Z,11.80
2023-04-15T10:00:54.961Z,12.30
2023-04-15T10:01:55.231Z,11.90
2023-04-15T10:02:55.325Z,13.30
2023-04-15T10:03:55.250Z,13.10
2023-04-15T10:04:54.983Z,12.30
2023-04-15T10:05:55.270Z,11.10
2023-04-15T10:06:54.946Z,11.60
2023-04-15T10:07:54.916Z,12.10
2023-04-15T10:08:54.910Z,13.10
2023-04-15T10:09:54.874Z,13.20
2023-04-15T10:10:54.853Z,12.60
2023-04-15T10:11:54.881Z,13.00
2023-04-15T10:12:54.850Z,10.50
2023-04-15T10:13:54.846Z,10.10
2023-04-15T10:14:54.828Z,10.70
2023-04-15T10:15:54.880Z,10.10
2023-04-15T10:16:54.808Z,10.40
2023-04-15T10:17:54.824Z,10.30
2023-04-15T10:18:54.813Z,10.00
2023-04-15T10:19:54.799Z,11.00
2023-04-15T10:20:54.882Z,11.50
2023-04-15T10:21:54.742Z,10.40
2023-04-15T10:22:54.727Z,10.00
2023-04-15T10:23:54.805Z,11.40
2023-04-15T10:24:54.749Z,11.60
2023-04-15T10:25:54.712Z,10.30
2023-04-15T10:26:54.712Z,10.10
2023-04-15T10:27:54.670Z,10.60
2023-04-15T10:28:54.739Z,11.20
2023-04-15T10:29:54.700Z,10.70
2023-04-15T10:30:54.704Z,11.00
2023-04-15T10:31:54.690Z,10.80
2023-04-15T10:32:54.662Z,10.10
2023-04-15T10:33:54.607Z,9.90
2023-04-15T10:34:54.864Z,11.40
2023-04-15T10:35:54.689Z,10.70
2023-04-15T10:36:54.621Z,10.30
2023-04-15T10:37:54.632Z,9.80
2023-04-15T10:38:54.595Z,10.00
2023-04-15T10:39:54.551Z,10.00
2023-04-15T10:40:54.530Z,11.50
2023-04-15T10:41:54.559Z,9.80
2023-04-15T10:42:54.562Z,9.80
2023-04-15T10:43:54.523Z,10.70
2023-04-15T10:44:54.615Z,11.00
2023-04-15T10:45:54.498Z,10.30
2023-04-15T10:46:54.623Z,11.10
2023-04-15T10:47:54.569Z,10.50
2023-04-15T10:48:54.489Z,9.60
2023-04-15T10:49:54.481Z,11.30
2023-04-15T10:50:54.448Z,10.50
2023-04-15T10:51:54.435Z,10.80
2023-04-15T10:52:54.468Z,10.80
2023-04-15T10:53:54.404Z,12.50
2023-04-15T10:54:54.392Z,11.70
2023-04-15T10:55:54.474Z,11.80
2023-04-15T10:56:54.387Z,11.80
2023-04-15T10:57:54.559Z,10.50
2023-04-15T10:58:54.373Z,10.30
2023-04-15T10:59:54.381Z,11.10
2023-04-15T11:00:54.350Z,9.90
2023-04-15T11:01:54.526Z,14.10
2023-04-15T11:02:54.422Z,11.80
2023-04-15T11:03:54.457Z,11.70
2023-04-15T11:04:54.349Z,10.50
2023-04-15T11:05:54.347Z,13.50
2023-04-15T11:06:54.295Z,11.70
2023-04-15T11:07:54.320Z,10.10
2023-04-15T11:08:54.300Z,14.50
2023-04-15T11:09:54.481Z,10.90
2023-04-15T11:10:54.273Z,37.20
2023-04-15T11:11:54.227Z,21.00
2023-04-15T11:12:54.225Z,42.30
2023-04-15T11:13:54.201Z,11.60
2023-04-15T11:14:54.201Z,10.90
2023-04-15T11:15:54.222Z,23.80
2023-04-15T11:16:54.188Z,10.50
2023-04-15T11:17:54.213Z,19.10
2023-04-15T11:18:54.202Z,78.70
2023-04-15T11:19:54.123Z,10.10
2023-04-15T11:20:54.165Z,9.80
2023-04-15T11:21:54.112Z,10.80
2023-04-15T11:23:02.574Z,9.60
2023-04-15T11:23:54.255Z,9.50
2023-04-15T11:24:54.131Z,11.90
2023-04-15T11:25:54.088Z,8.70
2023-04-15T11:26:54.065Z,10.70
2023-04-15T11:27:54.088Z,11.10
2023-04-15T11:28:54.091Z,12.50
2023-04-15T11:29:54.025Z,9.90
2023-04-15T11:30:54.056Z,9.70
2023-04-15T11:31:54.062Z,12.30
2023-04-15T11:32:54.046Z,10.00
2023-04-15T11:33:54.049Z,9.60
2023-04-15T11:34:54.019Z,9.10
2023-04-15T11:35:53.972Z,9.70
2023-04-15T11:36:53.956Z,9.30
2023-04-15T11:37:53.933Z,8.90
2023-04-15T11:38:53.979Z,7.70
2023-04-15T11:39:53.911Z,10.50
2023-04-15T11:40:53.907Z,6.60
2023-04-15T11:41:53.901Z,8.60
2023-04-15T11:42:53.928Z,7.50
2023-04-15T11:43:53.890Z,7.50
2023-04-15T11:44:53.900Z,8.50
2023-04-15T11:45:53.927Z,6.80
2023-04-15T11:46:53.887Z,7.90
2023-04-15T11:47:53.935Z,7.30
2023-04-15T11:48:53.866Z,6.90
2023-04-15T11:49:53.832Z,6.70
2023-04-15T11:50:53.788Z,8.80
2023-04-15T11:51:53.814Z,8.10
2023-04-15T11:52:53.808Z,8.70
2023-04-15T11:53:53.778Z,7.20
2023-04-15T11:54:53.788Z,7.90
2023-04-15T11:55:53.737Z,6.80
2023-04-15T11:56:53.753Z,7.40
2023-04-15T11:57:53.742Z,7.50
2023-04-15T11:58:53.753Z,7.50
2023-04-15T11:59:53.717Z,7.20
2023-04-15T12:00:53.704Z,7.50
2023-04-15T12:01:53.722Z,8.00
2023-04-15T12:02:53.810Z,8.80
2023-04-15T12:03:53.770Z,8.70
2023-04-15T12:04:53.778Z,6.70
2023-04-15T12:05:53.640Z,8.80
2023-04-15T12:06:53.639Z,6.50
2023-04-15T12:07:53.648Z,7.50
2023-04-15T12:08:53.647Z,7.10
2023-04-15T12:09:53.640Z,6.60
2023-04-15T12:10:53.642Z,8.70
2023-04-15T12:11:53.590Z,7.90
2023-04-15T12:12:53.618Z,7.00
2023-04-15T12:13:53.559Z,7.50
2023-04-15T12:14:53.548Z,8.10
2023-04-15T12:15:53.590Z,8.40
2023-04-15T12:16:53.570Z,5.90
2023-04-15T12:17:53.548Z,6.80
2023-04-15T12:18:53.504Z,7.90
2023-04-15T12:19:53.548Z,8.20
2023-04-15T12:20:53.548Z,7.10
2023-04-15T12:21:53.506Z,6.50
2023-04-15T12:22:53.481Z,8.70
2023-04-15T12:23:53.437Z,7.00
2023-04-15T12:24:53.519Z,7.60
2023-04-15T12:25:53.424Z,8.00
2023-04-15T12:26:53.479Z,8.50
2023-04-15T12:27:53.508Z,6.30
2023-04-15T12:28:53.403Z,6.70
2023-04-15T12:29:53.411Z,7.10
2023-04-15T12:30:53.490Z,8.60
2023-04-15T12:31:53.386Z,8.80
2023-04-15T12:32:53.406Z,8.10
2023-04-15T12:33:53.324Z,5.60
2023-04-15T12:34:53.478Z,6.80
2023-04-15T12:35:53.406Z,7.30
2023-04-15T12:36:53.331Z,6.50
2023-04-15T12:37:53.315Z,7.40
2023-04-15T12:38:53.328Z,8.00
2023-04-15T12:39:53.305Z,5.40
2023-04-15T12:40:53.291Z,7.50
2023-04-15T12:41:53.270Z,7.70
2023-04-15T12:42:53.290Z,7.00
2023-04-15T12:43:53.308Z,7.20
2023-04-15T12:44:53.277Z,6.90
2023-04-15T12:45:53.265Z,7.20
2023-04-15T12:46:53.292Z,6.60
2023-04-15T12:47:53.267Z,7.40
2023-04-15T12:48:53.211Z,7.30
2023-04-15T12:49:53.235Z,6.80
2023-04-15T12:50:53.198Z,7.40
2023-04-15T12:51:53.159Z,6.20
2023-04-15T12:52:53.186Z,7.10
2023-04-15T12:53:53.190Z,7.20
2023-04-15T12:54:53.143Z,6.30
2023-04-15T12:55:53.112Z,7.10